Time;durP1;ratioP1;P1;durP2;ratioP2;P2;SDS_P1;SDS_P2;PMS_P1;PMS_P2;Temp;Humidity;BMP_temperature;BMP_pressure;BME280_temperature;BME280_humidity;BME280_pressure;Samples;Min_cycle;Max_cycle;Signal;HPM_P1;HPM_P2
2022/01/18 00:01:48;;;;;;;0.00;0.00;;;;;;;2.15;91.16;104008.78;5060366;28;20043;-72
2022/01/18 00:04:14;;;;;;;0.00;0.00;;;;;;;2.12;91.07;104003.22;5060322;28;20313;-71
2022/01/18 00:06:41;;;;;;;0.10;0.10;;;;;;;2.12;91.23;103995.47;5050527;28;20287;-71
2022/01/18 00:09:08;;;;;;;0.10;0.10;;;;;;;2.12;91.21;104013.56;5061045;28;20021;-72
2022/01/18 00:11:40;;;;;;;0.00;0.00;;;;;;;2.11;91.29;104008.25;5060197;28;20302;-72
2022/01/18 00:14:13;;;;;;;0.00;0.00;;;;;;;2.10;91.28;104006.41;5060693;28;20271;-71
2022/01/18 00:17:00;;;;;;;0.00;0.00;;;;;;;2.10;91.33;104007.31;5058735;28;20287;-71
2022/01/18 00:19:25;;;;;;;0.10;0.10;;;;;;;2.12;91.38;104010.09;5047039;28;20068;-71
2022/01/18 00:22:09;;;;;;;0.10;0.10;;;;;;;2.11;91.07;104008.25;5056123;28;20391;-70
2022/01/18 00:24:35;;;;;;;0.10;0.10;;;;;;;2.12;91.34;104020.44;5045346;28;20079;-71
2022/01/18 00:27:00;;;;;;;0.00;0.00;;;;;;;2.12;91.24;104023.91;5057317;28;20029;-71
2022/01/18 00:29:28;;;;;;;0.00;0.00;;;;;;;2.12;91.57;104026.50;5047883;28;20025;-71
2022/01/18 00:32:06;;;;;;;0.10;0.10;;;;;;;2.11;91.50;104024.66;5059723;28;20040;-71
2022/01/18 00:34:35;;;;;;;0.00;0.00;;;;;;;2.10;91.44;104027.09;5059142;28;20071;-71
2022/01/18 00:39:33;;;;;;;0.00;0.00;;;;;;;2.08;91.48;104018.22;5052978;28;20368;-71
2022/01/18 00:41:59;;;;;;;0.00;0.00;;;;;;;2.08;91.62;104024.31;5071156;28;20275;-71
2022/01/18 00:44:24;;;;;;;0.07;0.07;;;;;;;2.10;91.47;104024.50;5059943;28;20048;-70
2022/01/18 00:46:51;;;;;;;0.00;0.00;;;;;;;2.12;91.56;104017.84;5074519;28;20071;-71
2022/01/18 00:49:16;;;;;;;0.00;0.00;;;;;;;2.14;91.76;104024.09;5041652;28;20029;-71
2022/01/18 00:51:44;;;;;;;0.00;0.00;;;;;;;2.18;91.75;104027.22;5059011;28;20047;-72
2022/01/18 00:54:13;;;;;;;0.00;0.00;;;;;;;2.17;91.71;104025.38;5059774;28;20013;-70
2022/01/18 00:56:41;;;;;;;0.10;0.10;;;;;;;2.18;91.76;104023.72;5058597;28;20290;-70
2022/01/18 00:59:06;;;;;;;0.07;0.07;;;;;;;2.20;91.74;104020.53;5047442;28;20060;-71
2022/01/18 01:01:34;;;;;;;0.07;0.07;;;;;;;2.20;91.81;104022.22;5059135;28;20025;-71
2022/01/18 01:04:02;;;;;;;0.00;0.00;;;;;;;2.17;91.82;104017.63;5067389;28;20071;-71
2022/01/18 01:06:29;;;;;;;0.10;0.10;;;;;;;2.16;91.60;104013.19;5065897;28;20321;-71
2022/01/18 01:08:56;;;;;;;0.00;0.00;;;;;;;2.16;91.66;104013.19;5049208;28;20284;-71
2022/01/18 01:11:21;;;;;;;0.00;0.00;;;;;;;2.15;91.76;104023.34;5039675;28;20026;-71
2022/01/18 01:13:53;;;;;;;0.00;0.00;;;;;;;2.13;91.56;104014.50;5038938;28;20372;-71
2022/01/18 01:35:30;;;;;;;0.00;0.00;;;;;;;2.11;91.90;104009.16;5039711;28;20275;-70
2022/01/18 01:43:38;;;;;;;0.00;0.00;;;;;;;2.08;91.86;104006.22;5039008;28;20728;-71
2022/01/18 01:46:04;;;;;;;0.00;0.00;;;;;;;2.05;91.91;104006.78;5038262;28;20280;-71
2022/01/18 01:48:29;;;;;;;0.00;0.00;;;;;;;2.05;91.81;104003.28;5043590;28;20052;-71
2022/01/18 01:51:03;;;;;;;0.10;0.10;;;;;;;2.01;91.84;104008.84;5042046;28;20398;-72
2022/01/18 01:53:30;;;;;;;0.00;0.00;;;;;;;1.98;91.55;104008.53;5038946;28;20033;-71
2022/01/18 01:55:56;;;;;;;0.00;0.00;;;;;;;1.96;91.91;104013.50;5039024;28;20377;-70
2022/01/18 01:58:26;;;;;;;0.00;0.00;;;;;;;1.94;91.91;104024.41;5042774;28;20283;-71
2022/01/18 02:00:55;;;;;;;0.10;0.10;;;;;;;1.91;91.65;104025.91;5058379;28;20041;-70
2022/01/18 02:03:20;;;;;;;0.00;0.00;;;;;;;1.87;91.84;104021.09;5058311;28;20337;-72
2022/01/18 02:05:46;;;;;;;0.00;0.00;;;;;;;1.85;91.70;104020.03;5058470;28;20033;-70
2022/01/18 02:08:13;;;;;;;0.03;0.03;;;;;;;1.82;91.63;104021.34;5041270;28;20021;-70
2022/01/18 02:10:39;;;;;;;0.00;0.00;;;;;;;1.78;91.64;104015.81;5038435;28;20499;-70
2022/01/18 02:13:05;;;;;;;0.00;0.00;;;;;;;1.73;91.72;104019.53;5038123;28;20385;-70
2022/01/18 02:15:31;;;;;;;0.07;0.07;;;;;;;1.71;91.68;104009.75;5037261;28;20677;-71
2022/01/18 02:23:28;;;;;;;0.00;0.00;;;;;;;1.61;91.72;104007.75;5038721;28;20337;-69
2022/01/18 02:25:54;;;;;;;0.00;0.00;;;;;;;1.59;91.73;104009.25;5038495;28;20033;-71
2022/01/18 02:28:20;;;;;;;0.00;0.00;;;;;;;1.55;91.76;104005.38;5045737;28;20283;-71
2022/01/18 02:30:46;;;;;;;0.00;0.00;;;;;;;1.54;91.85;104010.41;5038253;28;20029;-69
2022/01/18 02:33:13;;;;;;;0.00;0.00;;;;;;;1.51;91.82;104008.38;5039061;28;20287;-70
2022/01/18 02:35:38;;;;;;;0.10;0.10;;;;;;;1.47;91.64;104011.34;5056857;28;20123;-71
2022/01/18 02:38:04;;;;;;;0.00;0.00;;;;;;;1.44;91.68;104004.13;5057341;28;20441;-70
2022/01/18 02:40:30;;;;;;;0.00;0.00;;;;;;;1.40;91.74;104006.19;5057600;28;20155;-71
2022/01/18 02:43:00;;;;;;;0.00;0.00;;;;;;;1.39;91.79;104002.69;5057942;28;20037;-71
2022/01/18 02:45:27;;;;;;;0.00;0.00;;;;;;;1.38;91.73;104000.88;5039083;28;20519;-71
2022/01/18 02:47:52;;;;;;;0.00;0.00;;;;;;;1.37;91.84;104007.69;5037801;28;20280;-70
2022/01/18 02:50:18;;;;;;;0.00;0.00;;;;;;;1.37;91.82;104005.09;5038007;28;20283;-71
2022/01/18 02:52:44;;;;;;;0.10;0.10;;;;;;;1.38;91.82;104013.78;5037057;28;20384;-70
2022/01/18 02:55:09;;;;;;;0.00;0.00;;;;;;;1.39;92.41;104009.50;5053693;28;20032;-71
2022/01/18 02:57:53;;;;;;;0.30;0.30;;;;;;;1.36;91.84;104013.59;5056848;28;20037;-71
2022/01/18 03:00:27;;;;;;;0.00;0.00;;;;;;;1.33;92.08;104010.66;5057800;28;20039;-71
2022/01/18 03:03:13;;;;;;;0.00;0.00;;;;;;;1.34;92.15;104011.56;5056688;28;20546;-71
2022/01/18 03:05:41;;;;;;;0.00;0.00;;;;;;;1.33;91.94;104005.50;5036156;28;20383;-72
2022/01/18 03:08:08;;;;;;;0.03;0.03;;;;;;;1.30;91.92;104004.22;5037049;28;20025;-71
2022/01/18 03:10:34;;;;;;;0.00;0.00;;;;;;;1.30;91.94;103999.94;5052397;28;20697;-71
2022/01/18 03:13:00;;;;;;;0.00;0.00;;;;;;;1.29;91.72;103998.13;5057507;28;20275;-70
2022/01/18 03:15:25;;;;;;;0.10;0.10;;;;;;;1.28;91.92;104003.09;5055775;28;20064;-70
2022/01/18 03:17:50;;;;;;;0.00;0.00;;;;;;;1.29;92.09;104008.44;5054332;28;20020;-70
2022/01/18 03:20:19;;;;;;;0.00;0.00;;;;;;;1.31;92.13;104001.78;5057276;28;20424;-70
2022/01/18 03:22:45;;;;;;;0.00;0.00;;;;;;;1.35;92.01;104000.50;5056035;28;20036;-71
2022/01/18 03:25:26;;;;;;;0.00;0.00;;;;;;;1.35;91.93;104008.22;5057644;28;20375;-71
2022/01/18 03:28:05;;;;;;;0.00;0.00;;;;;;;1.37;92.27;104001.63;5043034;28;20308;-71
2022/01/18 03:30:31;;;;;;;0.00;0.00;;;;;;;1.37;92.30;104009.34;5036937;28;20287;-70
2022/01/18 03:32:56;;;;;;;0.00;0.00;;;;;;;1.39;92.33;104017.25;5036790;28;20546;-70
2022/01/18 03:35:23;;;;;;;0.00;0.00;;;;;;;1.40;92.31;104008.78;5036687;28;20035;-71
2022/01/18 03:37:48;;;;;;;0.00;0.00;;;;;;;1.42;92.18;104009.91;5048567;28;20025;-70
2022/01/18 03:40:13;;;;;;;0.00;0.00;;;;;;;1.44;92.36;104006.72;5057492;28;20289;-70
2022/01/18 03:42:42;;;;;;;0.00;0.00;;;;;;;1.45;92.48;104006.00;5056032;28;20048;-71
2022/01/18 03:45:10;;;;;;;0.00;0.00;;;;;;;1.46;92.39;104009.50;5056489;28;20072;-71
2022/01/18 03:47:36;;;;;;;0.00;0.00;;;;;;;1.48;92.01;104018.34;5045837;28;20430;-71
2022/01/18 03:50:04;;;;;;;0.00;0.00;;;;;;;1.48;92.45;104020.91;5037194;28;20279;-70
2022/01/18 03:52:29;;;;;;;0.00;0.00;;;;;;;1.47;92.33;104007.09;5036770;28;20380;-71
2022/01/18 03:54:55;;;;;;;0.00;0.00;;;;;;;1.48;92.13;104010.59;5036542;28;20308;-72
2022/01/18 03:57:21;;;;;;;0.00;0.00;;;;;;;1.48;92.11;104020.91;5044950;28;20028;-72
2022/01/18 03:59:47;;;;;;;0.00;0.00;;;;;;;1.44;92.22;104010.97;5056828;28;20315;-71
2022/01/18 04:02:12;;;;;;;0.00;0.00;;;;;;;1.39;92.31;104019.84;5055488;28;20052;-70
2022/01/18 04:04:38;;;;;;;0.00;0.00;;;;;;;1.33;92.05;104021.00;5055897;28;20021;-71
2022/01/18 04:07:05;;;;;;;0.07;0.07;;;;;;;1.30;92.08;104022.28;5051818;28;20108;-70
2022/01/18 04:09:30;;;;;;;0.10;0.10;;;;;;;1.22;91.79;104022.31;5042310;28;20021;-71
2022/01/18 04:11:55;;;;;;;0.00;0.00;;;;;;;1.18;92.01;104026.94;5057023;28;20382;-70
2022/01/18 04:14:21;;;;;;;0.10;0.10;;;;;;;1.11;91.91;104027.84;5056791;28;20040;-70
2022/01/18 04:18:04;;;;;;;0.00;0.00;;;;;;;1.06;91.81;104034.16;5055560;28;20307;-71
2022/01/18 04:27:45;;;;;;;0.00;0.00;;;;;;;0.93;91.99;104044.69;5047833;28;20426;-70
2022/01/18 04:30:11;;;;;;;0.00;0.00;;;;;;;0.91;91.70;104043.56;5037230;28;20295;-70
2022/01/18 04:32:36;;;;;;;0.00;0.00;;;;;;;0.89;91.91;104042.44;5036167;28;20535;-70
2022/01/18 04:35:02;;;;;;;2.13;0.60;;;;;;;0.89;91.75;104040.81;5036487;28;20319;-71
2022/01/18 04:37:27;;;;;;;0.00;0.00;;;;;;;0.88;92.22;104038.03;5044123;28;20041;-70
2022/01/18 04:39:52;;;;;;;0.00;0.00;;;;;;;0.89;92.07;104045.97;5060931;28;20036;-69
2022/01/18 04:43:00;;;;;;;0.00;0.00;;;;;;;0.90;92.06;104044.28;5060249;28;20036;-70
2022/01/18 04:50:32;;;;;;;0.10;0.10;;;;;;;0.98;92.38;104040.97;5040102;28;20280;-70
2022/01/18 04:52:57;;;;;;;0.07;0.07;;;;;;;0.98;92.44;104043.53;5039572;28;20499;-71
2022/01/18 04:55:30;;;;;;;0.00;0.00;;;;;;;1.00;92.35;104042.06;5040329;28;20060;-70
2022/01/18 04:57:55;;;;;;;0.00;0.00;;;;;;;1.01;92.50;104041.34;5049265;28;20032;-70
2022/01/18 05:00:21;;;;;;;0.00;0.00;;;;;;;1.01;92.09;104036.19;5059986;28;20286;-69
2022/01/18 05:02:47;;;;;;;0.00;0.00;;;;;;;1.01;92.61;104043.94;5059211;28;20029;-69
2022/01/18 05:05:22;;;;;;;0.00;0.00;;;;;;;1.00;92.46;104039.47;5059110;28;20028;-70
2022/01/18 05:07:48;;;;;;;0.07;0.07;;;;;;;0.99;92.70;104042.81;5050437;28;20280;-68
2022/01/18 05:10:16;;;;;;;0.00;0.00;;;;;;;0.97;92.28;104049.44;5050948;28;20558;-69
2022/01/18 05:12:46;;;;;;;0.00;0.00;;;;;;;0.94;92.40;104054.25;5059130;28;20267;-70
2022/01/18 05:15:40;;;;;;;0.00;0.00;;;;;;;0.91;92.50;104048.72;5059729;28;20715;-70
2022/01/18 05:21:12;;;;;;;0.00;0.00;;;;;;;0.83;92.24;104042.66;5059476;28;20644;-70
2022/01/18 05:23:38;;;;;;;0.00;0.00;;;;;;;0.80;92.25;104038.03;5058969;28;20040;-69
2022/01/18 05:26:03;;;;;;;0.00;0.00;;;;;;;0.78;92.30;104039.53;5059417;28;20279;-69
2022/01/18 05:28:29;;;;;;;0.00;0.00;;;;;;;0.75;92.31;104040.81;5044899;28;20033;-69
2022/01/18 05:30:54;;;;;;;0.00;0.00;;;;;;;0.73;92.35;104038.03;5039565;28;20442;-69
2022/01/18 05:33:21;;;;;;;0.00;0.00;;;;;;;0.68;92.32;104037.50;5037497;28;20311;-69
2022/01/18 05:35:47;;;;;;;0.00;0.00;;;;;;;0.64;92.08;104034.38;5038622;28;20395;-69
2022/01/18 05:38:12;;;;;;;0.00;0.00;;;;;;;0.60;92.21;104027.91;5050989;28;20287;-69
2022/01/18 05:40:38;;;;;;;0.00;0.00;;;;;;;0.57;92.15;104034.34;5058512;28;20126;-69
2022/01/18 05:43:04;;;;;;;0.00;0.00;;;;;;;0.54;91.98;104042.63;5059157;28;20036;-69
2022/01/18 05:45:29;;;;;;;0.00;0.00;;;;;;;0.51;92.21;104044.84;5057418;28;20049;-69
2022/01/18 05:47:54;;;;;;;0.00;0.00;;;;;;;0.48;92.10;104037.66;5049302;28;20417;-69
2022/01/18 05:50:20;;;;;;;0.00;0.00;;;;;;;0.44;92.15;104037.13;5038666;28;20051;-69
2022/01/18 05:52:45;;;;;;;0.00;0.00;;;;;;;0.42;92.26;104042.06;5038558;28;20037;-69
2022/01/18 05:55:11;;;;;;;0.00;0.00;;;;;;;0.40;92.23;104041.91;5039154;28;20109;-69
2022/01/18 05:57:38;;;;;;;0.00;0.00;;;;;;;0.40;92.31;104043.56;5043963;28;20033;-71
2022/01/18 06:00:05;;;;;;;0.00;0.00;;;;;;;0.39;92.13;104039.13;5058847;28;20098;-69
2022/01/18 06:07:51;;;;;;;0.00;0.00;;;;;;;0.33;92.17;104044.47;5050623;28;20331;-69
2022/01/18 06:10:16;;;;;;;0.00;0.00;;;;;;;0.29;92.22;104031.94;5051564;28;20267;-70
2022/01/18 06:12:41;;;;;;;0.00;0.00;;;;;;;0.29;92.27;104033.63;5058284;28;20071;-70
2022/01/18 06:15:07;;;;;;;0.00;0.00;;;;;;;0.26;92.26;104029.91;5058491;28;20100;-69
2022/01/18 06:17:33;;;;;;;0.00;0.00;;;;;;;0.24;92.38;104030.44;5056510;28;20044;-69
2022/01/18 06:19:58;;;;;;;0.00;0.00;;;;;;;0.20;92.31;104024.03;5058139;28;20105;-68
2022/01/18 06:22:24;;;;;;;0.00;0.00;;;;;;;0.18;92.31;104024.56;5058186;28;20024;-69
2022/01/18 06:24:50;;;;;;;0.00;0.00;;;;;;;0.15;92.01;104021.59;5058021;28;20021;-68
2022/01/18 06:27:15;;;;;;;0.00;0.00;;;;;;;0.12;92.21;104028.22;5044599;28;20055;-70
2022/01/18 06:29:41;;;;;;;0.00;0.00;;;;;;;0.12;92.40;104030.81;5057821;28;20284;-69
2022/01/18 06:32:07;;;;;;;0.00;0.00;;;;;;;0.10;92.50;104037.44;5050831;28;20403;-69
2022/01/18 06:34:32;;;;;;;0.00;0.00;;;;;;;0.09;92.24;104034.66;5036913;28;20075;-69
2022/01/18 06:36:59;;;;;;;0.00;0.00;;;;;;;0.08;92.16;104035.41;5041243;28;20589;-69
2022/01/18 06:39:24;;;;;;;0.00;0.00;;;;;;;0.05;92.32;104030.78;5028968;28;20025;-69
2022/01/18 06:41:50;;;;;;;0.00;0.00;;;;;;;0.06;92.13;104040.34;5044887;28;20279;-69
2022/01/18 06:44:15;;;;;;;0.00;0.00;;;;;;;0.08;92.14;104040.56;5042901;28;20025;-70
2022/01/18 06:46:41;;;;;;;0.03;0.03;;;;;;;0.11;92.33;104043.50;5045627;28;20284;-69
2022/01/18 06:49:07;;;;;;;0.00;0.00;;;;;;;0.14;92.58;104043.88;5045669;28;20044;-69
2022/01/18 06:51:34;;;;;;;0.00;0.00;;;;;;;0.15;92.46;104035.41;5047742;28;20446;-69
2022/01/18 06:53:59;;;;;;;0.00;0.00;;;;;;;0.17;92.53;104033.94;5039797;28;20299;-69
2022/01/18 06:56:26;;;;;;;0.00;0.00;;;;;;;0.16;92.18;104033.75;5037052;28;20328;-69
2022/01/18 06:58:53;;;;;;;0.00;0.00;;;;;;;0.16;92.69;104042.41;5036434;28;20304;-69
2022/01/18 07:01:18;;;;;;;0.00;0.00;;;;;;;0.16;92.56;104039.84;5036556;28;20670;-69
2022/01/18 07:03:44;;;;;;;0.00;0.00;;;;;;;0.18;92.54;104040.94;5037275;28;20288;-69
2022/01/18 07:06:10;;;;;;;0.00;0.00;;;;;;;0.18;92.61;104040.03;5039805;28;20119;-69
2022/01/18 07:08:35;;;;;;;0.07;0.07;;;;;;;0.19;92.61;104044.44;5048197;28;20032;-69
2022/01/18 07:11:01;;;;;;;0.00;0.00;;;;;;;0.19;92.53;104032.47;5056853;28;20036;-68
2022/01/18 07:13:26;;;;;;;0.00;0.00;;;;;;;0.20;92.67;104039.50;5057105;28;20040;-69
2022/01/18 07:15:52;;;;;;;0.00;0.00;;;;;;;0.21;92.73;104054.22;5057458;28;20032;-70
2022/01/18 07:18:17;;;;;;;0.00;0.00;;;;;;;0.14;92.49;104046.47;5056049;28;20017;-70
2022/01/18 07:20:42;;;;;;;0.00;0.00;;;;;;;0.06;92.54;104053.25;5057127;28;20029;-69
2022/01/18 07:23:11;;;;;;;0.00;0.00;;;;;;;0.02;92.32;104055.25;5056617;28;20426;-70
2022/01/18 07:25:43;;;;;;;0.00;0.00;;;;;;;-0.01;92.27;104056.72;5043549;28;20029;-69
2022/01/18 07:28:13;;;;;;;0.10;0.10;;;;;;;-0.04;92.14;104055.44;5037219;28;20355;-69
2022/01/18 07:30:39;;;;;;;0.00;0.00;;;;;;;-0.05;92.35;104061.31;5037121;28;20286;-69
2022/01/18 07:33:05;;;;;;;0.00;0.00;;;;;;;-0.03;92.29;104047.91;5036336;28;20288;-69
2022/01/18 07:35:33;;;;;;;0.03;0.03;;;;;;;-0.03;92.18;104054.69;5048229;28;20047;-69
2022/01/18 07:38:00;;;;;;;0.10;0.10;;;;;;;-0.02;92.04;104053.97;5037306;28;20294;-69
2022/01/18 07:40:27;;;;;;;0.00;0.00;;;;;;;0.00;92.60;104060.25;5037010;28;20706;-69
2022/01/18 07:42:53;;;;;;;0.00;0.00;;;;;;;0.04;92.20;104054.72;5036526;28;20268;-69
2022/01/18 07:45:18;;;;;;;0.00;0.00;;;;;;;0.07;92.47;104061.91;5035896;28;20310;-70
2022/01/18 07:47:44;;;;;;;0.00;0.00;;;;;;;0.10;92.49;104046.81;5036610;28;20272;-70
2022/01/18 07:50:09;;;;;;;0.00;0.00;;;;;;;0.14;92.35;104059.34;5037133;28;20037;-69
2022/01/18 07:52:35;;;;;;;0.00;0.00;;;;;;;0.16;92.47;104060.44;5036809;28;20060;-69
2022/01/18 07:55:05;;;;;;;0.00;0.00;;;;;;;0.21;92.47;104061.94;5046065;28;20021;-69
2022/01/18 07:57:30;;;;;;;0.00;0.00;;;;;;;0.28;92.55;104066.19;5052638;28;20259;-69
2022/01/18 07:59:56;;;;;;;0.00;0.00;;;;;;;0.37;92.76;104069.88;5057072;28;20272;-70
2022/01/18 08:02:22;;;;;;;0.00;0.00;;;;;;;0.42;92.73;104070.44;5052443;28;20303;-68
2022/01/18 08:04:47;;;;;;;0.00;0.00;;;;;;;0.49;92.84;104073.03;5041160;28;20030;-71
2022/01/18 08:07:13;;;;;;;0.00;0.00;;;;;;;0.52;92.83;104073.44;5042462;28;20033;-70
2022/01/18 08:09:38;;;;;;;0.00;0.00;;;;;;;0.58;92.74;104074.88;5043935;28;20334;-69
2022/01/18 08:12:05;;;;;;;0.00;0.00;;;;;;;0.62;92.73;104071.97;5056271;28;20280;-69
2022/01/18 08:14:32;;;;;;;0.00;0.00;;;;;;;0.67;92.84;104074.34;5057645;28;20017;-70
2022/01/18 08:17:00;;;;;;;0.00;0.00;;;;;;;0.74;92.84;104073.41;5060731;28;20267;-70
2022/01/18 08:19:28;;;;;;;0.00;0.00;;;;;;;0.79;92.81;104063.66;5060559;28;20275;-71
2022/01/18 08:21:53;;;;;;;0.00;0.00;;;;;;;0.84;92.65;104072.88;5048182;28;20296;-68
2022/01/18 08:24:21;;;;;;;0.00;0.00;;;;;;;0.91;92.62;104067.72;5054405;28;20322;-69
2022/01/18 08:26:47;;;;;;;0.00;0.00;;;;;;;1.00;92.87;104066.97;5052788;28;20021;-69
2022/01/18 08:29:12;;;;;;;0.00;0.00;;;;;;;1.06;92.89;104062.53;5060031;28;20267;-70
2022/01/18 08:31:39;;;;;;;0.00;0.00;;;;;;;1.11;92.70;104071.72;5045960;28;20033;-69
2022/01/18 08:34:05;;;;;;;0.00;0.00;;;;;;;1.16;92.85;104074.84;5041417;28;20298;-70
2022/01/18 08:36:30;;;;;;;0.00;0.00;;;;;;;1.20;92.92;104072.81;5049563;28;20761;-70
2022/01/18 08:38:55;;;;;;;0.00;0.00;;;;;;;1.28;92.81;104075.38;5054310;28;20040;-69
2022/01/18 08:41:21;;;;;;;0.00;0.00;;;;;;;1.33;93.15;104082.97;5039258;28;20087;-68
2022/01/18 08:43:46;;;;;;;0.00;0.00;;;;;;;1.36;92.88;104083.31;5039682;28;20051;-69
2022/01/18 08:46:12;;;;;;;0.00;0.00;;;;;;;1.39;92.93;104090.50;5041125;28;20025;-69
2022/01/18 08:48:37;;;;;;;0.00;0.00;;;;;;;1.45;93.01;104088.66;5038709;28;20101;-70
2022/01/18 08:51:04;;;;;;;0.00;0.00;;;;;;;1.47;92.92;104087.16;5039335;28;20117;-69
2022/01/18 08:53:29;;;;;;;0.00;0.00;;;;;;;1.52;93.02;104092.88;5039119;28;20053;-68
2022/01/18 08:55:55;;;;;;;0.07;0.07;;;;;;;1.57;92.80;104089.19;5048927;28;20755;-70
2022/01/18 08:58:23;;;;;;;0.00;0.00;;;;;;;1.61;92.98;104091.38;5039838;28;20021;-70
2022/01/18 09:00:49;;;;;;;0.00;0.00;;;;;;;1.70;92.90;104085.44;5039335;28;20040;-70
2022/01/18 09:03:15;;;;;;;0.00;0.00;;;;;;;1.71;92.92;104085.63;5038706;28;20271;-70
2022/01/18 09:05:43;;;;;;;0.00;0.00;;;;;;;1.74;92.77;104091.13;5047285;28;20033;-69
2022/01/18 09:08:11;;;;;;;0.10;0.10;;;;;;;1.83;92.70;104092.94;5043107;28;20033;-70
2022/01/18 09:10:37;;;;;;;0.00;0.00;;;;;;;1.87;92.88;104095.16;5042618;28;20279;-70
2022/01/18 09:13:02;;;;;;;0.00;0.00;;;;;;;1.89;92.43;104089.44;5039234;28;20272;-69
2022/01/18 09:15:27;;;;;;;0.00;0.00;;;;;;;1.94;92.73;104083.84;5049090;28;20052;-70
2022/01/18 09:17:53;;;;;;;0.00;0.00;;;;;;;1.95;92.67;104086.63;5038967;28;20021;-70
2022/01/18 09:20:18;;;;;;;0.00;0.00;;;;;;;1.99;92.94;104093.09;5038026;28;20116;-69
2022/01/18 09:22:48;;;;;;;0.00;0.00;;;;;;;2.03;92.18;104087.50;5038297;28;20110;-71
2022/01/18 09:25:17;;;;;;;0.00;0.00;;;;;;;2.09;92.76;104085.63;5051111;28;20028;-69
2022/01/18 09:27:43;;;;;;;0.00;0.00;;;;;;;2.11;92.60;104091.88;5045878;28;20303;-70
2022/01/18 09:30:09;;;;;;;0.00;0.00;;;;;;;2.18;92.45;104089.28;5038588;28;20307;-69
2022/01/18 09:32:35;;;;;;;0.00;0.00;;;;;;;2.25;92.72;104085.72;5038397;28;20389;-70
2022/01/18 09:35:00;;;;;;;0.00;0.00;;;;;;;2.30;92.58;104094.94;5026821;28;20300;-69
2022/01/18 09:37:26;;;;;;;0.00;0.00;;;;;;;2.32;92.58;104092.53;5038994;28;20281;-70
2022/01/18 09:39:54;;;;;;;0.00;0.00;;;;;;;2.36;92.53;104092.13;5038827;28;20029;-68
2022/01/18 09:42:20;;;;;;;0.00;0.00;;;;;;;2.35;92.40;104094.53;5038290;28;20021;-70
2022/01/18 09:44:48;;;;;;;0.00;0.00;;;;;;;2.38;92.63;104095.81;5042348;28;20099;-69
2022/01/18 09:47:14;;;;;;;0.10;0.10;;;;;;;2.39;92.50;104089.91;5042951;28;20392;-71
2022/01/18 09:49:39;;;;;;;0.10;0.10;;;;;;;2.50;92.52;104096.28;5038317;28;20021;-70
2022/01/18 09:52:05;;;;;;;0.00;0.00;;;;;;;2.57;92.10;104096.22;5038749;28;20234;-71
2022/01/18 09:54:30;;;;;;;0.00;0.00;;;;;;;2.57;92.07;104098.81;5044402;28;20075;-70
2022/01/18 09:56:56;;;;;;;0.10;0.10;;;;;;;2.57;91.97;104097.91;5037801;28;20344;-70
2022/01/18 09:59:21;;;;;;;0.00;0.00;;;;;;;2.60;91.96;104100.81;5038923;28;20028;-69
2022/01/18 10:01:47;;;;;;;0.07;0.07;;;;;;;2.68;92.19;104099.13;5037999;28;20084;-69
2022/01/18 10:04:21;;;;;;;0.00;0.00;;;;;;;2.72;92.21;104098.69;5043021;28;20034;-73
2022/01/18 10:06:52;;;;;;;0.00;0.00;;;;;;;2.78;92.33;104102.00;5038380;28;20096;-70
2022/01/18 10:09:18;;;;;;;0.00;0.00;;;;;;;2.80;92.15;104095.31;5042900;28;20372;-70
2022/01/18 10:12:00;;;;;;;0.00;0.00;;;;;;;2.88;92.25;104098.78;5039876;28;20017;-70
2022/01/18 10:14:25;;;;;;;0.00;0.00;;;;;;;2.94;92.32;104095.94;5043403;28;20076;-70
2022/01/18 10:16:51;;;;;;;0.00;0.00;;;;;;;2.98;92.17;104095.53;5037332;28;20033;-69
2022/01/18 10:19:29;;;;;;;0.00;0.00;;;;;;;3.01;92.16;104093.28;5038042;28;20025;-69
2022/01/18 10:22:10;;;;;;;0.10;0.10;;;;;;;3.06;92.12;104088.63;5037160;28;20041;-70
2022/01/18 10:24:35;;;;;;;0.10;0.10;;;;;;;3.08;92.03;104093.25;5037909;28;20105;-69
2022/01/18 10:27:01;;;;;;;0.00;0.00;;;;;;;3.09;92.29;104088.97;5037068;28;20249;-68
2022/01/18 10:29:28;;;;;;;0.00;0.00;;;;;;;3.15;92.02;104094.81;5037896;28;20044;-70
2022/01/18 10:31:57;;;;;;;0.07;0.07;;;;;;;3.15;92.19;104100.94;5035143;28;20037;-69
2022/01/18 10:37:10;;;;;;;0.00;0.00;;;;;;;3.23;92.21;104101.78;5037642;28;20265;-70
2022/01/18 10:39:38;;;;;;;0.10;0.10;;;;;;;3.26;91.60;104102.13;5037226;28;20030;-69
2022/01/18 10:42:15;;;;;;;0.10;0.10;;;;;;;3.25;91.70;104094.19;5038877;28;20029;-69
2022/01/18 10:44:40;;;;;;;0.10;0.10;;;;;;;3.29;91.78;104089.50;5037270;28;20450;-70
2022/01/18 10:47:06;;;;;;;0.10;0.10;;;;;;;3.32;91.77;104094.13;5037311;28;20033;-70
2022/01/18 10:49:44;;;;;;;0.10;0.10;;;;;;;3.31;91.83;104102.66;5037484;28;20288;-70
2022/01/18 10:52:12;;;;;;;0.10;0.10;;;;;;;3.33;91.87;104097.59;5044655;28;20033;-70
2022/01/18 10:54:57;;;;;;;0.10;0.10;;;;;;;3.33;91.87;104097.59;5042446;28;20384;-69
2022/01/18 10:57:23;;;;;;;0.00;0.00;;;;;;;3.40;91.73;104095.88;5044977;28;20029;-69
2022/01/18 10:59:56;;;;;;;0.07;0.07;;;;;;;3.38;91.89;104099.03;5037592;28;20057;-70
2022/01/18 11:02:22;;;;;;;0.10;0.10;;;;;;;3.40;91.80;104095.88;5037367;28;20017;-70
2022/01/18 11:04:55;;;;;;;0.00;0.00;;;;;;;3.44;91.91;104095.44;5037142;28;20127;-70
2022/01/18 11:07:23;;;;;;;0.10;0.10;;;;;;;3.42;91.73;104089.19;5037396;28;20024;-71
2022/01/18 11:09:49;;;;;;;0.43;0.43;;;;;;;3.42;91.55;104081.41;5045893;28;20023;-70
2022/01/18 11:12:14;;;;;;;0.00;0.00;;;;;;;3.47;91.69;104076.72;5046983;28;20319;-70
2022/01/18 11:14:44;;;;;;;0.00;0.00;;;;;;;3.54;91.72;104076.66;5038835;28;20292;-70
2022/01/18 11:17:14;;;;;;;0.00;0.00;;;;;;;3.55;91.46;104075.91;5036932;28;20406;-70
2022/01/18 11:19:39;;;;;;;0.10;0.10;;;;;;;3.56;92.11;104076.81;5037107;28;20029;-70
2022/01/18 11:22:10;;;;;;;0.00;0.00;;;;;;;3.57;91.75;104076.06;5046047;28;20039;-69
2022/01/18 11:24:47;;;;;;;0.10;0.10;;;;;;;3.60;91.76;104078.09;5035777;28;20031;-70
2022/01/18 11:27:14;;;;;;;0.10;0.10;;;;;;;3.61;91.51;104075.63;5039934;28;20077;-70
2022/01/18 11:29:43;;;;;;;0.20;0.20;;;;;;;3.64;91.55;104068.22;5045757;28;20029;-71
2022/01/18 11:32:10;;;;;;;0.00;0.00;;;;;;;3.67;91.76;104065.94;5041503;28;20300;-70
2022/01/18 11:34:56;;;;;;;0.10;0.10;;;;;;;3.76;91.66;104066.03;5043333;28;20068;-69
2022/01/18 11:38:11;;;;;;;0.10;0.10;;;;;;;3.76;91.76;104071.22;5037093;28;20022;-70
2022/01/18 11:40:52;;;;;;;0.00;0.00;;;;;;;3.74;91.50;104077.88;5050529;28;20076;-70
2022/01/18 11:43:37;;;;;;;0.00;0.00;;;;;;;3.73;91.53;104067.38;5039459;28;20099;-69
2022/01/18 11:46:32;;;;;;;0.00;0.00;;;;;;;3.76;91.67;104062.50;5050359;28;20043;-70
2022/01/18 11:49:04;;;;;;;0.10;0.10;;;;;;;3.76;91.44;104060.84;5036518;28;20024;-69
2022/01/18 11:51:48;;;;;;;0.10;0.10;;;;;;;3.75;91.45;104053.81;5036738;28;20029;-70
2022/01/18 11:54:57;;;;;;;0.10;0.10;;;;;;;3.74;91.29;104056.25;5036326;28;20109;-69
2022/01/18 11:57:27;;;;;;;0.10;0.10;;;;;;;3.70;90.97;104061.09;5037175;28;20022;-70
2022/01/18 12:00:10;;;;;;;0.00;0.00;;;;;;;3.71;91.42;104057.75;5036889;28;20108;-72
2022/01/18 12:02:40;;;;;;;0.00;0.00;;;;;;;3.69;91.23;104051.47;5035278;28;20043;-70
2022/01/18 12:05:20;;;;;;;0.10;0.10;;;;;;;3.62;91.38;104054.16;5042643;28;20037;-70
2022/01/18 12:07:50;;;;;;;0.00;0.00;;;;;;;3.67;91.31;104049.50;5043900;28;20072;-71
2022/01/18 12:10:21;;;;;;;0.10;0.10;;;;;;;3.70;91.56;104037.78;5049114;28;20108;-69
2022/01/18 12:12:52;;;;;;;0.10;0.10;;;;;;;3.76;91.51;104041.75;5037496;28;20029;-70
2022/01/18 12:15:22;;;;;;;0.00;0.00;;;;;;;3.77;91.58;104039.34;5036458;28;20362;-71
2022/01/18 12:17:48;;;;;;;0.10;0.10;;;;;;;3.77;91.50;104039.34;5047519;28;20094;-71
2022/01/18 12:20:35;;;;;;;0.00;0.00;;;;;;;3.82;91.65;104039.84;5041648;28;20111;-71
2022/01/18 12:23:21;;;;;;;0.00;0.00;;;;;;;3.84;91.66;104028.88;5052598;28;20053;-70
2022/01/18 12:26:10;;;;;;;0.10;0.10;;;;;;;3.83;91.91;104033.91;5042277;28;20076;-70
2022/01/18 12:28:47;;;;;;;0.00;0.00;;;;;;;3.88;91.65;104029.19;5051402;28;20025;-69
2022/01/18 12:34:38;;;;;;;0.00;0.00;;;;;;;3.92;91.59;104027.09;5036344;28;20038;-69
2022/01/18 12:37:11;;;;;;;0.10;0.10;;;;;;;4.01;91.58;104026.25;5035365;28;20044;-70
2022/01/18 12:39:53;;;;;;;0.00;0.00;;;;;;;4.03;91.65;104025.66;5036376;28;20029;-70
2022/01/18 12:45:16;;;;;;;0.53;0.53;;;;;;;4.08;91.59;104032.25;5035947;28;20041;-69